sensor_id;sensor_type;location;lat;lon;timestamp;temperature;humidity
56729;DHT22;42612;52.232;7.560;2022-09-19T00:01:52;15.20;61.20
56729;DHT22;42612;52.232;7.560;2022-09-19T00:04:38;15.10;60.90
56729;DHT22;42612;52.232;7.560;2022-09-19T00:07:24;15.20;60.90
56729;DHT22;42612;52.232;7.560;2022-09-19T00:10:10;15.20;60.90
56729;DHT22;42612;52.232;7.560;2022-09-19T00:12:56;15.30;60.90
56729;DHT22;42612;52.232;7.560;2022-09-19T00:15:46;15.20;60.90
56729;DHT22;42612;52.232;7.560;2022-09-19T00:18:34;15.30;60.70
56729;DHT22;42612;52.232;7.560;2022-09-19T00:21:27;15.20;60.60
56729;DHT22;42612;52.232;7.560;2022-09-19T00:24:24;15.20;60.50
56729;DHT22;42612;52.232;7.560;2022-09-19T00:27:29;15.10;60.50
56729;DHT22;42612;52.232;7.560;2022-09-19T00:30:15;15.10;60.30
56729;DHT22;42612;52.232;7.560;2022-09-19T00:33:01;15.10;60.50
56729;DHT22;42612;52.232;7.560;2022-09-19T00:35:47;15.00;60.30
56729;DHT22;42612;52.232;7.560;2022-09-19T00:38:42;15.00;60.50
56729;DHT22;42612;52.232;7.560;2022-09-19T00:41:29;14.90;60.50
56729;DHT22;42612;52.232;7.560;2022-09-19T00:47:09;14.90;60.70
56729;DHT22;42612;52.232;7.560;2022-09-19T00:49:57;14.90;60.80
56729;DHT22;42612;52.232;7.560;2022-09-19T00:52:48;14.90;60.90
56729;DHT22;42612;52.232;7.560;2022-09-19T00:55:37;14.90;60.90
56729;DHT22;42612;52.232;7.560;2022-09-19T00:58:30;14.90;60.90
56729;DHT22;42612;52.232;7.560;2022-09-19T01:01:20;14.90;60.90
56729;DHT22;42612;52.232;7.560;2022-09-19T01:04:16;14.90;60.90
56729;DHT22;42612;52.232;7.560;2022-09-19T01:07:10;14.90;60.90
56729;DHT22;42612;52.232;7.560;2022-09-19T01:13:24;15.00;60.80
56729;DHT22;42612;52.232;7.560;2022-09-19T01:16:18;15.00;60.90
56729;DHT22;42612;52.232;7.560;2022-09-19T01:22:42;15.00;60.80
56729;DHT22;42612;52.232;7.560;2022-09-19T01:25:41;15.00;60.70
56729;DHT22;42612;52.232;7.560;2022-09-19T01:28:36;15.00;60.60
56729;DHT22;42612;52.232;7.560;2022-09-19T01:31:40;15.00;60.70
56729;DHT22;42612;52.232;7.560;2022-09-19T01:34:30;14.90;60.70
56729;DHT22;42612;52.232;7.560;2022-09-19T01:37:20;14.90;60.70
56729;DHT22;42612;52.232;7.560;2022-09-19T01:40:14;14.80;60.70
56729;DHT22;42612;52.232;7.560;2022-09-19T01:43:02;14.80;60.80
56729;DHT22;42612;52.232;7.560;2022-09-19T01:45:50;14.80;60.90
56729;DHT22;42612;52.232;7.560;2022-09-19T01:51:39;14.70;61.00
56729;DHT22;42612;52.232;7.560;2022-09-19T01:54:34;14.70;61.00
56729;DHT22;42612;52.232;7.560;2022-09-19T02:00:35;14.70;61.20
56729;DHT22;42612;52.232;7.560;2022-09-19T02:06:27;14.70;61.20
56729;DHT22;42612;52.232;7.560;2022-09-19T02:09:21;14.70;61.90
56729;DHT22;42612;52.232;7.560;2022-09-19T02:12:13;14.70;61.10
56729;DHT22;42612;52.232;7.560;2022-09-19T02:15:02;14.70;61.80
56729;DHT22;42612;52.232;7.560;2022-09-19T02:17:54;14.70;61.30
56729;DHT22;42612;52.232;7.560;2022-09-19T02:20:42;14.70;61.30
56729;DHT22;42612;52.232;7.560;2022-09-19T02:23:29;14.70;61.20
56729;DHT22;42612;52.232;7.560;2022-09-19T02:26:19;14.70;61.30
56729;DHT22;42612;52.232;7.560;2022-09-19T02:29:08;14.60;61.20
56729;DHT22;42612;52.232;7.560;2022-09-19T02:31:58;14.60;61.10
56729;DHT22;42612;52.232;7.560;2022-09-19T02:34:48;14.60;61.10
56729;DHT22;42612;52.232;7.560;2022-09-19T02:37:35;14.60;61.10
56729;DHT22;42612;52.232;7.560;2022-09-19T02:40:46;14.60;61.20
56729;DHT22;42612;52.232;7.560;2022-09-19T02:47:04;14.60;61.30
56729;DHT22;42612;52.232;7.560;2022-09-19T02:50:06;14.70;61.30
56729;DHT22;42612;52.232;7.560;2022-09-19T02:52:58;14.70;61.30
56729;DHT22;42612;52.232;7.560;2022-09-19T02:55:47;14.70;61.20
56729;DHT22;42612;52.232;7.560;2022-09-19T02:58:41;14.70;61.20
56729;DHT22;42612;52.232;7.560;2022-09-19T03:01:31;14.70;61.80
56729;DHT22;42612;52.232;7.560;2022-09-19T03:04:20;14.70;61.30
56729;DHT22;42612;52.232;7.560;2022-09-19T03:07:19;14.70;61.10
56729;DHT22;42612;52.232;7.560;2022-09-19T03:10:12;14.70;61.10
56729;DHT22;42612;52.232;7.560;2022-09-19T03:13:07;14.70;61.10
56729;DHT22;42612;52.232;7.560;2022-09-19T03:15:58;14.70;61.80
56729;DHT22;42612;52.232;7.560;2022-09-19T03:18:47;14.70;61.30
56729;DHT22;42612;52.232;7.560;2022-09-19T03:21:41;14.70;61.20
56729;DHT22;42612;52.232;7.560;2022-09-19T03:24:28;14.70;61.30
56729;DHT22;42612;52.232;7.560;2022-09-19T03:27:14;14.70;61.20
56729;DHT22;42612;52.232;7.560;2022-09-19T03:30:00;14.70;61.30
56729;DHT22;42612;52.232;7.560;2022-09-19T03:32:46;14.70;61.40
56729;DHT22;42612;52.232;7.560;2022-09-19T03:35:32;14.70;61.40
56729;DHT22;42612;52.232;7.560;2022-09-19T03:38:18;14.70;61.50
56729;DHT22;42612;52.232;7.560;2022-09-19T03:41:05;14.80;61.70
56729;DHT22;42612;52.232;7.560;2022-09-19T03:43:51;14.80;61.60
56729;DHT22;42612;52.232;7.560;2022-09-19T03:46:37;14.80;61.50
56729;DHT22;42612;52.232;7.560;2022-09-19T03:49:23;14.80;61.50
56729;DHT22;42612;52.232;7.560;2022-09-19T03:52:09;14.80;61.90
56729;DHT22;42612;52.232;7.560;2022-09-19T03:54:55;14.90;61.80
56729;DHT22;42612;52.232;7.560;2022-09-19T03:57:43;14.90;61.60
56729;DHT22;42612;52.232;7.560;2022-09-19T04:00:29;14.90;61.90
56729;DHT22;42612;52.232;7.560;2022-09-19T04:03:16;14.90;62.00
56729;DHT22;42612;52.232;7.560;2022-09-19T04:06:09;14.90;61.90
56729;DHT22;42612;52.232;7.560;2022-09-19T04:08:55;14.80;62.00
56729;DHT22;42612;52.232;7.560;2022-09-19T04:11:41;14.80;62.10
56729;DHT22;42612;52.232;7.560;2022-09-19T04:14:27;14.80;61.90
56729;DHT22;42612;52.232;7.560;2022-09-19T04:17:14;14.80;61.80
56729;DHT22;42612;52.232;7.560;2022-09-19T04:20:00;14.90;62.10
56729;DHT22;42612;52.232;7.560;2022-09-19T04:22:46;14.90;62.50
56729;DHT22;42612;52.232;7.560;2022-09-19T04:25:32;14.90;62.50
56729;DHT22;42612;52.232;7.560;2022-09-19T04:28:21;14.90;62.70
56729;DHT22;42612;52.232;7.560;2022-09-19T04:31:08;14.90;62.80
56729;DHT22;42612;52.232;7.560;2022-09-19T04:33:55;14.90;62.50
56729;DHT22;42612;52.232;7.560;2022-09-19T04:36:42;14.90;62.90
56729;DHT22;42612;52.232;7.560;2022-09-19T04:39:29;14.90;62.40
56729;DHT22;42612;52.232;7.560;2022-09-19T04:42:16;14.80;62.20
56729;DHT22;42612;52.232;7.560;2022-09-19T04:45:02;14.90;62.20
56729;DHT22;42612;52.232;7.560;2022-09-19T04:47:49;14.90;62.30
56729;DHT22;42612;52.232;7.560;2022-09-19T04:50:36;14.90;62.20
56729;DHT22;42612;52.232;7.560;2022-09-19T04:53:23;14.90;62.30
56729;DHT22;42612;52.232;7.560;2022-09-19T04:56:09;14.90;62.40
56729;DHT22;42612;52.232;7.560;2022-09-19T04:58:56;14.90;62.30
56729;DHT22;42612;52.232;7.560;2022-09-19T05:01:44;14.90;62.30
56729;DHT22;42612;52.232;7.560;2022-09-19T05:04:30;14.90;62.00
56729;DHT22;42612;52.232;7.560;2022-09-19T05:07:16;14.90;62.00
56729;DHT22;42612;52.232;7.560;2022-09-19T05:10:04;14.90;62.40
56729;DHT22;42612;52.232;7.560;2022-09-19T05:12:51;14.90;62.20
56729;DHT22;42612;52.232;7.560;2022-09-19T05:15:37;14.90;62.10
56729;DHT22;42612;52.232;7.560;2022-09-19T05:18:26;14.90;62.50
56729;DHT22;42612;52.232;7.560;2022-09-19T05:21:13;14.90;62.20
56729;DHT22;42612;52.232;7.560;2022-09-19T05:24:00;14.90;62.30
56729;DHT22;42612;52.232;7.560;2022-09-19T05:26:46;14.90;62.20
56729;DHT22;42612;52.232;7.560;2022-09-19T05:29:32;14.90;62.10
56729;DHT22;42612;52.232;7.560;2022-09-19T05:32:21;14.90;62.30
56729;DHT22;42612;52.232;7.560;2022-09-19T05:35:08;14.90;62.40
56729;DHT22;42612;52.232;7.560;2022-09-19T05:37:54;14.90;62.20
56729;DHT22;42612;52.232;7.560;2022-09-19T05:40:40;14.90;62.30
56729;DHT22;42612;52.232;7.560;2022-09-19T05:43:25;14.90;62.70
56729;DHT22;42612;52.232;7.560;2022-09-19T05:46:11;14.90;62.30
56729;DHT22;42612;52.232;7.560;2022-09-19T05:48:57;14.90;62.20
56729;DHT22;42612;52.232;7.560;2022-09-19T05:51:43;14.90;62.40
56729;DHT22;42612;52.232;7.560;2022-09-19T05:54:29;14.90;62.60
56729;DHT22;42612;52.232;7.560;2022-09-19T05:57:15;15.00;62.60
56729;DHT22;42612;52.232;7.560;2022-09-19T06:00:04;15.00;62.50
56729;DHT22;42612;52.232;7.560;2022-09-19T06:03:02;15.00;62.60
56729;DHT22;42612;52.232;7.560;2022-09-19T06:05:49;15.10;62.80
56729;DHT22;42612;52.232;7.560;2022-09-19T06:08:37;15.10;62.60
56729;DHT22;42612;52.232;7.560;2022-09-19T06:11:24;15.10;62.50
56729;DHT22;42612;52.232;7.560;2022-09-19T06:14:10;15.10;62.60
56729;DHT22;42612;52.232;7.560;2022-09-19T06:16:59;15.20;62.80
56729;DHT22;42612;52.232;7.560;2022-09-19T06:19:45;15.10;62.60
56729;DHT22;42612;52.232;7.560;2022-09-19T06:22:31;15.20;62.70
56729;DHT22;42612;52.232;7.560;2022-09-19T06:25:17;15.20;62.60
56729;DHT22;42612;52.232;7.560;2022-09-19T06:28:10;15.20;62.40
56729;DHT22;42612;52.232;7.560;2022-09-19T06:31:00;15.20;62.80
56729;DHT22;42612;52.232;7.560;2022-09-19T06:33:49;15.20;62.60
56729;DHT22;42612;52.232;7.560;2022-09-19T06:36:35;15.30;62.70
56729;DHT22;42612;52.232;7.560;2022-09-19T06:39:21;15.30;62.60
56729;DHT22;42612;52.232;7.560;2022-09-19T06:42:07;15.30;62.60
56729;DHT22;42612;52.232;7.560;2022-09-19T06:44:53;15.40;62.60
56729;DHT22;42612;52.232;7.560;2022-09-19T06:47:39;15.50;62.60
56729;DHT22;42612;52.232;7.560;2022-09-19T06:50:25;15.50;62.50
56729;DHT22;42612;52.232;7.560;2022-09-19T06:53:12;15.50;62.40
56729;DHT22;42612;52.232;7.560;2022-09-19T06:55:58;15.60;62.50
56729;DHT22;42612;52.232;7.560;2022-09-19T06:58:44;15.60;62.50
56729;DHT22;42612;52.232;7.560;2022-09-19T07:01:30;15.70;62.50
56729;DHT22;42612;52.232;7.560;2022-09-19T07:04:16;15.70;62.40
56729;DHT22;42612;52.232;7.560;2022-09-19T07:07:04;15.70;62.40
56729;DHT22;42612;52.232;7.560;2022-09-19T07:09:50;15.70;62.40
56729;DHT22;42612;52.232;7.560;2022-09-19T07:12:36;15.80;62.50
56729;DHT22;42612;52.232;7.560;2022-09-19T07:15:23;15.80;62.40
56729;DHT22;42612;52.232;7.560;2022-09-19T07:18:09;15.90;62.50
56729;DHT22;42612;52.232;7.560;2022-09-19T07:20:58;15.90;62.50
56729;DHT22;42612;52.232;7.560;2022-09-19T07:23:45;15.90;62.30
56729;DHT22;42612;52.232;7.560;2022-09-19T07:26:33;15.90;62.40
56729;DHT22;42612;52.232;7.560;2022-09-19T07:29:19;15.90;62.30
56729;DHT22;42612;52.232;7.560;2022-09-19T07:32:05;16.00;62.60
56729;DHT22;42612;52.232;7.560;2022-09-19T07:34:51;16.00;62.60
56729;DHT22;42612;52.232;7.560;2022-09-19T07:37:37;16.10;62.40
56729;DHT22;42612;52.232;7.560;2022-09-19T07:40:23;16.00;62.30
56729;DHT22;42612;52.232;7.560;2022-09-19T07:43:09;16.10;62.40
56729;DHT22;42612;52.232;7.560;2022-09-19T07:45:59;16.10;62.30
56729;DHT22;42612;52.232;7.560;2022-09-19T07:48:48;16.10;62.30
56729;DHT22;42612;52.232;7.560;2022-09-19T07:51:34;16.10;62.10
56729;DHT22;42612;52.232;7.560;2022-09-19T07:54:20;16.10;62.10
56729;DHT22;42612;52.232;7.560;2022-09-19T07:57:06;16.20;62.20
56729;DHT22;42612;52.232;7.560;2022-09-19T07:59:52;16.20;62.10
56729;DHT22;42612;52.232;7.560;2022-09-19T08:02:38;16.20;62.00
56729;DHT22;42612;52.232;7.560;2022-09-19T08:05:24;16.20;62.50
56729;DHT22;42612;52.232;7.560;2022-09-19T08:08:12;16.30;62.10
56729;DHT22;42612;52.232;7.560;2022-09-19T08:10:59;16.30;62.10
56729;DHT22;42612;52.232;7.560;2022-09-19T08:13:46;16.40;62.30
56729;DHT22;42612;52.232;7.560;2022-09-19T08:16:32;16.50;62.30
56729;DHT22;42612;52.232;7.560;2022-09-19T08:19:18;16.50;62.50
56729;DHT22;42612;52.232;7.560;2022-09-19T08:22:04;16.60;62.40
56729;DHT22;42612;52.232;7.560;2022-09-19T08:24:50;16.60;62.30
56729;DHT22;42612;52.232;7.560;2022-09-19T08:27:36;16.70;63.00
56729;DHT22;42612;52.232;7.560;2022-09-19T08:30:23;16.80;62.20
56729;DHT22;42612;52.232;7.560;2022-09-19T08:33:10;16.80;62.20
56729;DHT22;42612;52.232;7.560;2022-09-19T08:35:59;16.90;62.20
56729;DHT22;42612;52.232;7.560;2022-09-19T08:38:46;17.00;62.20
56729;DHT22;42612;52.232;7.560;2022-09-19T08:47:35;17.10;62.10
56729;DHT22;42612;52.232;7.560;2022-09-19T08:50:25;17.10;62.10
56729;DHT22;42612;52.232;7.560;2022-09-19T08:53:15;17.10;61.90
56729;DHT22;42612;52.232;7.560;2022-09-19T08:56:07;17.20;61.90
56729;DHT22;42612;52.232;7.560;2022-09-19T08:58:55;17.20;61.90
56729;DHT22;42612;52.232;7.560;2022-09-19T09:01:45;17.30;62.00
56729;DHT22;42612;52.232;7.560;2022-09-19T09:04:31;17.30;61.80
56729;DHT22;42612;52.232;7.560;2022-09-19T09:22:39;17.70;61.90
56729;DHT22;42612;52.232;7.560;2022-09-19T09:25:27;17.80;61.60
56729;DHT22;42612;52.232;7.560;2022-09-19T09:34:06;18.00;61.40
56729;DHT22;42612;52.232;7.560;2022-09-19T09:40:18;18.10;60.90
56729;DHT22;42612;52.232;7.560;2022-09-19T09:43:44;18.20;61.20
56729;DHT22;42612;52.232;7.560;2022-09-19T09:49:48;18.30;60.90
56729;DHT22;42612;52.232;7.560;2022-09-19T10:01:55;18.60;60.70
56729;DHT22;42612;52.232;7.560;2022-09-19T10:05:30;18.70;60.70
56729;DHT22;42612;52.232;7.560;2022-09-19T10:08:20;18.80;60.60
56729;DHT22;42612;52.232;7.560;2022-09-19T10:11:14;18.90;60.40
56729;DHT22;42612;52.232;7.560;2022-09-19T10:14:27;18.90;60.30
56729;DHT22;42612;52.232;7.560;2022-09-19T10:17:17;19.00;60.10
56729;DHT22;42612;52.232;7.560;2022-09-19T10:20:07;19.00;59.80
56729;DHT22;42612;52.232;7.560;2022-09-19T10:22:57;19.10;60.70
56729;DHT22;42612;52.232;7.560;2022-09-19T10:25:44;19.10;59.70
56729;DHT22;42612;52.232;7.560;2022-09-19T10:28:33;19.10;59.30
56729;DHT22;42612;52.232;7.560;2022-09-19T10:34:27;19.20;59.40
56729;DHT22;42612;52.232;7.560;2022-09-19T10:37:19;19.30;59.30
56729;DHT22;42612;52.232;7.560;2022-09-19T10:40:13;19.30;59.20
56729;DHT22;42612;52.232;7.560;2022-09-19T10:43:00;19.30;58.70
56729;DHT22;42612;52.232;7.560;2022-09-19T10:45:47;19.40;59.10
56729;DHT22;42612;52.232;7.560;2022-09-19T10:48:34;19.40;59.00
56729;DHT22;42612;52.232;7.560;2022-09-19T10:51:20;19.50;59.10
56729;DHT22;42612;52.232;7.560;2022-09-19T10:54:09;19.50;58.90
56729;DHT22;42612;52.232;7.560;2022-09-19T10:56:57;19.60;58.80
56729;DHT22;42612;52.232;7.560;2022-09-19T10:59:46;19.60;58.30
56729;DHT22;42612;52.232;7.560;2022-09-19T11:02:36;19.70;58.50
56729;DHT22;42612;52.232;7.560;2022-09-19T11:05:31;19.80;58.60
56729;DHT22;42612;52.232;7.560;2022-09-19T11:08:22;19.90;58.50
56729;DHT22;42612;52.232;7.560;2022-09-19T11:11:19;20.00;58.20
56729;DHT22;42612;52.232;7.560;2022-09-19T11:14:14;20.10;57.40
56729;DHT22;42612;52.232;7.560;2022-09-19T11:17:23;20.10;57.70
56729;DHT22;42612;52.232;7.560;2022-09-19T11:20:48;20.20;58.00
56729;DHT22;42612;52.232;7.560;2022-09-19T11:30:02;20.30;57.60
56729;DHT22;42612;52.232;7.560;2022-09-19T11:36:28;20.50;57.70
56729;DHT22;42612;52.232;7.560;2022-09-19T11:42:20;20.70;57.10
56729;DHT22;42612;52.232;7.560;2022-09-19T11:45:19;20.70;57.30
56729;DHT22;42612;52.232;7.560;2022-09-19T11:48:10;20.60;56.60
56729;DHT22;42612;52.232;7.560;2022-09-19T11:51:05;20.40;55.60
56729;DHT22;42612;52.232;7.560;2022-09-19T12:00:20;20.20;55.30
56729;DHT22;42612;52.232;7.560;2022-09-19T12:03:08;20.10;55.60
56729;DHT22;42612;52.232;7.560;2022-09-19T12:06:06;20.20;56.80
56729;DHT22;42612;52.232;7.560;2022-09-19T12:09:20;20.30;56.40
56729;DHT22;42612;52.232;7.560;2022-09-19T12:12:13;20.30;56.50
56729;DHT22;42612;52.232;7.560;2022-09-19T12:15:03;20.40;56.70
56729;DHT22;42612;52.232;7.560;2022-09-19T12:18:03;20.50;56.60
56729;DHT22;42612;52.232;7.560;2022-09-19T12:20:54;20.60;56.60
56729;DHT22;42612;52.232;7.560;2022-09-19T12:23:43;20.80;55.80
56729;DHT22;42612;52.232;7.560;2022-09-19T12:26:55;20.80;56.30
56729;DHT22;42612;52.232;7.560;2022-09-19T12:33:09;21.00;56.40
56729;DHT22;42612;52.232;7.560;2022-09-19T12:39:03;21.20;55.90
56729;DHT22;42612;52.232;7.560;2022-09-19T12:48:21;20.90;54.80
56729;DHT22;42612;52.232;7.560;2022-09-19T12:51:14;20.80;54.30
56729;DHT22;42612;52.232;7.560;2022-09-19T12:54:10;20.60;54.70
56729;DHT22;42612;52.232;7.560;2022-09-19T12:57:08;20.40;54.70
56729;DHT22;42612;52.232;7.560;2022-09-19T13:00:00;20.30;55.00
56729;DHT22;42612;52.232;7.560;2022-09-19T13:02:50;20.20;55.20
56729;DHT22;42612;52.232;7.560;2022-09-19T13:11:36;20.00;55.90
56729;DHT22;42612;52.232;7.560;2022-09-19T13:14:35;20.00;56.50
56729;DHT22;42612;52.232;7.560;2022-09-19T13:17:29;20.10;56.70
56729;DHT22;42612;52.232;7.560;2022-09-19T13:20:38;20.20;56.90
56729;DHT22;42612;52.232;7.560;2022-09-19T13:23:45;20.40;56.60
56729;DHT22;42612;52.232;7.560;2022-09-19T13:26:36;20.60;56.80
56729;DHT22;42612;52.232;7.560;2022-09-19T13:35:47;20.90;56.70
56729;DHT22;42612;52.232;7.560;2022-09-19T13:38:41;21.10;56.50
56729;DHT22;42612;52.232;7.560;2022-09-19T13:41:42;21.20;56.60
56729;DHT22;42612;52.232;7.560;2022-09-19T13:44:42;21.10;55.90
56729;DHT22;42612;52.232;7.560;2022-09-19T13:47:36;21.00;54.70
56729;DHT22;42612;52.232;7.560;2022-09-19T13:50:35;20.70;54.20
56729;DHT22;42612;52.232;7.560;2022-09-19T13:53:35;20.30;54.00
56729;DHT22;42612;52.232;7.560;2022-09-19T13:56:27;20.00;54.30
56729;DHT22;42612;52.232;7.560;2022-09-19T13:59:27;19.80;54.40
56729;DHT22;42612;52.232;7.560;2022-09-19T14:02:19;19.50;54.60
56729;DHT22;42612;52.232;7.560;2022-09-19T14:08:02;19.20;55.40
56729;DHT22;42612;52.232;7.560;2022-09-19T14:10:50;19.10;55.50
56729;DHT22;42612;52.232;7.560;2022-09-19T14:13:39;19.10;55.70
56729;DHT22;42612;52.232;7.560;2022-09-19T14:16:30;19.00;56.00
56729;DHT22;42612;52.232;7.560;2022-09-19T14:22:42;19.00;56.60
56729;DHT22;42612;52.232;7.560;2022-09-19T14:25:29;19.00;56.80
56729;DHT22;42612;52.232;7.560;2022-09-19T14:35:05;19.00;57.40
56729;DHT22;42612;52.232;7.560;2022-09-19T14:51:39;18.80;57.00
56729;DHT22;42612;52.232;7.560;2022-09-19T14:54:47;18.80;57.10
56729;DHT22;42612;52.232;7.560;2022-09-19T14:57:46;18.80;57.30
56729;DHT22;42612;52.232;7.560;2022-09-19T15:00:33;18.90;57.30
56729;DHT22;42612;52.232;7.560;2022-09-19T15:03:20;19.00;57.30
56729;DHT22;42612;52.232;7.560;2022-09-19T15:06:25;19.00;57.40
56729;DHT22;42612;52.232;7.560;2022-09-19T15:09:23;19.10;57.60
56729;DHT22;42612;52.232;7.560;2022-09-19T15:12:23;19.20;57.10
56729;DHT22;42612;52.232;7.560;2022-09-19T15:15:14;19.30;56.50
56729;DHT22;42612;52.232;7.560;2022-09-19T15:18:01;19.30;56.60
56729;DHT22;42612;52.232;7.560;2022-09-19T15:20:51;19.30;56.50
56729;DHT22;42612;52.232;7.560;2022-09-19T15:23:40;19.30;56.10
56729;DHT22;42612;52.232;7.560;2022-09-19T15:26:27;19.30;56.40
56729;DHT22;42612;52.232;7.560;2022-09-19T15:29:18;19.30;56.30
56729;DHT22;42612;52.232;7.560;2022-09-19T15:32:30;19.20;56.30
56729;DHT22;42612;52.232;7.560;2022-09-19T15:35:25;19.30;56.40
56729;DHT22;42612;52.232;7.560;2022-09-19T15:38:33;19.20;56.40
56729;DHT22;42612;52.232;7.560;2022-09-19T15:41:21;19.10;55.90
56729;DHT22;42612;52.232;7.560;2022-09-19T15:44:21;19.10;56.30
56729;DHT22;42612;52.232;7.560;2022-09-19T15:47:11;19.10;56.30
56729;DHT22;42612;52.232;7.560;2022-09-19T15:50:00;19.10;56.40
56729;DHT22;42612;52.232;7.560;2022-09-19T15:52:48;19.00;56.30
56729;DHT22;42612;52.232;7.560;2022-09-19T15:55:34;19.00;56.20
56729;DHT22;42612;52.232;7.560;2022-09-19T15:58:20;19.00;56.20
56729;DHT22;42612;52.232;7.560;2022-09-19T16:01:15;18.90;56.10
56729;DHT22;42612;52.232;7.560;2022-09-19T16:04:18;18.90;56.00
56729;DHT22;42612;52.232;7.560;2022-09-19T16:07:08;18.90;56.10
56729;DHT22;42612;52.232;7.560;2022-09-19T16:10:35;18.90;56.30
56729;DHT22;42612;52.232;7.560;2022-09-19T16:13:36;18.90;56.40
56729;DHT22;42612;52.232;7.560;2022-09-19T16:16:34;18.90;56.60
56729;DHT22;42612;52.232;7.560;2022-09-19T16:22:20;19.00;56.70
56729;DHT22;42612;52.232;7.560;2022-09-19T16:25:10;19.10;56.80
56729;DHT22;42612;52.232;7.560;2022-09-19T16:27:57;19.10;56.90
56729;DHT22;42612;52.232;7.560;2022-09-19T16:30:50;19.20;56.90
56729;DHT22;42612;52.232;7.560;2022-09-19T16:33:39;19.30;56.90
56729;DHT22;42612;52.232;7.560;2022-09-19T16:36:26;19.40;56.80
56729;DHT22;42612;52.232;7.560;2022-09-19T16:39:23;19.40;56.50
56729;DHT22;42612;52.232;7.560;2022-09-19T16:48:23;19.40;56.00
56729;DHT22;42612;52.232;7.560;2022-09-19T16:51:11;19.40;55.80
56729;DHT22;42612;52.232;7.560;2022-09-19T16:53:59;19.30;55.70
56729;DHT22;42612;52.232;7.560;2022-09-19T16:56:47;19.40;55.80
56729;DHT22;42612;52.232;7.560;2022-09-19T16:59:33;19.30;55.80
56729;DHT22;42612;52.232;7.560;2022-09-19T17:02:27;19.30;55.80
56729;DHT22;42612;52.232;7.560;2022-09-19T17:05:15;19.20;55.80
56729;DHT22;42612;52.232;7.560;2022-09-19T17:08:04;19.30;55.90
56729;DHT22;42612;52.232;7.560;2022-09-19T17:10:51;19.20;55.90
56729;DHT22;42612;52.232;7.560;2022-09-19T17:13:37;19.10;55.80
56729;DHT22;42612;52.232;7.560;2022-09-19T17:16:24;19.10;56.00
56729;DHT22;42612;52.232;7.560;2022-09-19T17:19:10;19.00;55.70
56729;DHT22;42612;52.232;7.560;2022-09-19T17:21:56;19.00;55.70
56729;DHT22;42612;52.232;7.560;2022-09-19T17:24:42;18.90;55.70
56729;DHT22;42612;52.232;7.560;2022-09-19T17:27:28;18.90;55.70
56729;DHT22;42612;52.232;7.560;2022-09-19T17:30:14;18.90;55.70
56729;DHT22;42612;52.232;7.560;2022-09-19T17:33:00;18.80;55.70
56729;DHT22;42612;52.232;7.560;2022-09-19T17:35:46;18.90;55.90
56729;DHT22;42612;52.232;7.560;2022-09-19T17:38:32;18.80;55.80
56729;DHT22;42612;52.232;7.560;2022-09-19T17:41:19;18.80;55.80
56729;DHT22;42612;52.232;7.560;2022-09-19T17:44:07;18.80;55.70
56729;DHT22;42612;52.232;7.560;2022-09-19T17:46:54;18.80;55.70
56729;DHT22;42612;52.232;7.560;2022-09-19T17:49:40;18.70;55.60
56729;DHT22;42612;52.232;7.560;2022-09-19T17:52:26;18.70;55.50
56729;DHT22;42612;52.232;7.560;2022-09-19T17:55:12;18.70;55.60
56729;DHT22;42612;52.232;7.560;2022-09-19T17:57:59;18.70;55.60
56729;DHT22;42612;52.232;7.560;2022-09-19T18:00:56;18.70;55.60
56729;DHT22;42612;52.232;7.560;2022-09-19T18:04:02;18.60;55.50
56729;DHT22;42612;52.232;7.560;2022-09-19T18:06:48;18.60;55.50
56729;DHT22;42612;52.232;7.560;2022-09-19T18:09:34;18.60;55.50
56729;DHT22;42612;52.232;7.560;2022-09-19T18:12:20;18.60;55.50
56729;DHT22;42612;52.232;7.560;2022-09-19T18:15:06;18.50;55.50
56729;DHT22;42612;52.232;7.560;2022-09-19T18:17:58;18.50;55.50
56729;DHT22;42612;52.232;7.560;2022-09-19T18:20:53;18.40;55.40
56729;DHT22;42612;52.232;7.560;2022-09-19T18:23:42;18.40;55.50
56729;DHT22;42612;52.232;7.560;2022-09-19T18:26:30;18.40;55.60
56729;DHT22;42612;52.232;7.560;2022-09-19T18:29:16;18.30;55.50
56729;DHT22;42612;52.232;7.560;2022-09-19T18:32:02;18.30;55.50
56729;DHT22;42612;52.232;7.560;2022-09-19T18:34:49;18.30;55.50
56729;DHT22;42612;52.232;7.560;2022-09-19T18:37:35;18.20;55.40
56729;DHT22;42612;52.232;7.560;2022-09-19T18:40:22;18.20;55.50
56729;DHT22;42612;52.232;7.560;2022-09-19T18:43:08;18.10;55.40
56729;DHT22;42612;52.232;7.560;2022-09-19T18:46:05;18.10;55.40
56729;DHT22;42612;52.232;7.560;2022-09-19T18:48:54;18.10;55.30
56729;DHT22;42612;52.232;7.560;2022-09-19T18:51:41;18.00;55.00
56729;DHT22;42612;52.232;7.560;2022-09-19T18:54:27;18.00;55.20
56729;DHT22;42612;52.232;7.560;2022-09-19T18:57:14;18.00;55.10
56729;DHT22;42612;52.232;7.560;2022-09-19T19:00:00;17.90;54.90
56729;DHT22;42612;52.232;7.560;2022-09-19T19:02:48;17.90;55.10
56729;DHT22;42612;52.232;7.560;2022-09-19T19:05:34;17.90;55.00
56729;DHT22;42612;52.232;7.560;2022-09-19T19:08:21;17.90;54.90
56729;DHT22;42612;52.232;7.560;2022-09-19T19:11:08;17.90;54.80
56729;DHT22;42612;52.232;7.560;2022-09-19T19:13:59;17.90;54.70
56729;DHT22;42612;52.232;7.560;2022-09-19T19:16:46;17.90;54.50
56729;DHT22;42612;52.232;7.560;2022-09-19T19:19:32;17.80;54.40
56729;DHT22;42612;52.232;7.560;2022-09-19T19:22:18;17.80;54.50
56729;DHT22;42612;52.232;7.560;2022-09-19T19:25:04;17.80;54.60
56729;DHT22;42612;52.232;7.560;2022-09-19T19:27:50;17.80;54.50
56729;DHT22;42612;52.232;7.560;2022-09-19T19:30:36;17.70;54.20
56729;DHT22;42612;52.232;7.560;2022-09-19T19:33:22;17.70;54.50
56729;DHT22;42612;52.232;7.560;2022-09-19T19:36:12;17.70;54.50
56729;DHT22;42612;52.232;7.560;2022-09-19T19:38:59;17.70;54.40
56729;DHT22;42612;52.232;7.560;2022-09-19T19:41:46;17.70;54.40
56729;DHT22;42612;52.232;7.560;2022-09-19T19:44:32;17.70;54.50
56729;DHT22;42612;52.232;7.560;2022-09-19T19:47:18;17.70;54.60
56729;DHT22;42612;52.232;7.560;2022-09-19T19:50:04;17.70;54.40
56729;DHT22;42612;52.232;7.560;2022-09-19T19:52:50;17.60;54.50
56729;DHT22;42612;52.232;7.560;2022-09-19T19:55:36;17.60;54.40
56729;DHT22;42612;52.232;7.560;2022-09-19T19:58:22;17.60;54.50
56729;DHT22;42612;52.232;7.560;2022-09-19T20:01:11;17.60;54.50
56729;DHT22;42612;52.232;7.560;2022-09-19T20:04:03;17.50;54.50
56729;DHT22;42612;52.232;7.560;2022-09-19T20:06:52;17.50;55.00
56729;DHT22;42612;52.232;7.560;2022-09-19T20:09:38;17.50;54.20
56729;DHT22;42612;52.232;7.560;2022-09-19T20:12:26;17.40;54.00
56729;DHT22;42612;52.232;7.560;2022-09-19T20:15:12;17.40;54.40
56729;DHT22;42612;52.232;7.560;2022-09-19T20:17:58;17.40;54.40
56729;DHT22;42612;52.232;7.560;2022-09-19T20:20:44;17.20;54.30
56729;DHT22;42612;52.232;7.560;2022-09-19T20:23:30;17.20;54.50